Ice Star — V2EF5 — position and weather

sailwx.info

Track history (hours):
 
Tides and Currents Weather Stations Pressure Air Temp Water Temp Dewpoint Dewpoint Depression Visibility Wind Speed Wind Dir Waves Ship Positions

Ice Star

Last reported at 2017-Nov-24 22:34 UTC. Time now 2017-Nov-25 01:47 UTC.
Position N 17°12' W 060°53'.

Length 130 m; draft 5.8 m.

Type: Ship (hazmat cat A). MMSI: 305413000.

Date/timePositionNaut miles runAvg speedWind from/ knotsBaromVisibWave heightAir tempDewpointWater temp
2017-Nov-24 22:34N 17°12' W 060°53'312.8
2017-Nov-24 22:22N 17°11' W 060°56'512.9
2017-Nov-24 22:00N 17°08' W 060°60'713.2
2017-Nov-24 21:30N 17°05' W 061°06'713.4
2017-Nov-24 21:00N 17°01' W 061°11'713.4
2017-Nov-24 20:30N 16°57' W 061°17'713.4
2017-Nov-24 20:00N 16°53' W 061°22'713.5
2017-Nov-24 19:31N 16°49' W 061°28'612.9
2017-Nov-24 19:00N 16°45' W 061°34'713.1
2017-Nov-24 18:30N 16°41' W 061°39'713.1
2017-Nov-24 18:00N 16°37' W 061°45'612.8
2017-Nov-24 17:30N 16°34' W 061°50'612.8
2017-Nov-24 17:00N 16°30' W 061°56'2913.3
2017-Nov-24 14:49N 16°14' W 062°21'513.7
2017-Nov-24 14:27N 16°11' W 062°25'  
Track history (hours):
 
Tides and Currents Weather Stations Pressure Air Temp Water Temp Dewpoint Dewpoint Depression Visibility Wind Speed Wind Dir Waves Ship Positions

Ice Star

Last reported at 2017-Nov-24 22:34 UTC. Time now 2017-Nov-25 01:47 UTC.
Position N 17°12' W 060°53'.

Length 130 m; draft 5.8 m.

Type: Ship (hazmat cat A). MMSI: 305413000.

Date/timePositionNaut miles runAvg speedWind from/ knotsBaromVisibWave heightAir tempDewpointWater temp
2017-Nov-24 22:34N 17°12' W 060°53'312.8
2017-Nov-24 22:22N 17°11' W 060°56'512.9
2017-Nov-24 22:00N 17°08' W 060°60'713.2
2017-Nov-24 21:30N 17°05' W 061°06'713.4
2017-Nov-24 21:00N 17°01' W 061°11'713.4
2017-Nov-24 20:30N 16°57' W 061°17'713.4
2017-Nov-24 20:00N 16°53' W 061°22'713.5
2017-Nov-24 19:31N 16°49' W 061°28'612.9
2017-Nov-24 19:00N 16°45' W 061°34'713.1
2017-Nov-24 18:30N 16°41' W 061°39'713.1
2017-Nov-24 18:00N 16°37' W 061°45'612.8
2017-Nov-24 17:30N 16°34' W 061°50'612.8
2017-Nov-24 17:00N 16°30' W 061°56'2913.3
2017-Nov-24 14:49N 16°14' W 062°21'513.7
2017-Nov-24 14:27N 16°11' W 062°25'  

Dump ship's entire track history